createdAt,value
2022-08-14T00:03:37.288Z,24.72
2022-08-14T00:08:44.457Z,24.64
2022-08-14T00:13:51.744Z,24.63
2022-08-14T00:19:06.316Z,24.56
2022-08-14T00:24:23.304Z,24.50
2022-08-14T00:29:32.910Z,24.49
2022-08-14T00:34:47.177Z,24.42
2022-08-14T00:39:50.915Z,24.42
2022-08-14T00:44:52.331Z,24.38
2022-08-14T00:49:56.971Z,24.36
2022-08-14T00:54:58.902Z,24.36
2022-08-14T01:00:18.071Z,24.34
2022-08-14T01:05:50.751Z,24.28
2022-08-14T01:10:53.493Z,24.20
2022-08-14T01:15:58.769Z,24.19
2022-08-14T01:21:11.799Z,24.16
2022-08-14T01:26:23.549Z,24.07
2022-08-14T01:31:41.734Z,23.99
2022-08-14T01:36:43.291Z,23.93
2022-08-14T01:41:49.896Z,23.96
2022-08-14T01:46:57.977Z,23.97
2022-08-14T01:52:03.598Z,23.93
2022-08-14T01:57:11.511Z,23.87
2022-08-14T02:02:19.716Z,23.83
2022-08-14T02:07:34.147Z,23.70
2022-08-14T02:12:46.104Z,23.55
2022-08-14T02:17:55.665Z,23.55
2022-08-14T02:22:57.730Z,23.46
2022-08-14T02:28:24.751Z,23.50
2022-08-14T02:33:23.492Z,23.47
2022-08-14T02:38:30.050Z,23.45
2022-08-14T02:43:46.222Z,23.45
2022-08-14T02:49:03.761Z,23.36
2022-08-14T02:54:09.796Z,23.27
2022-08-14T02:59:16.982Z,23.15
2022-08-14T03:04:20.406Z,23.12
2022-08-14T03:09:22.232Z,23.05
2022-08-14T03:14:27.621Z,22.99
2022-08-14T03:19:29.187Z,22.90
2022-08-14T03:24:32.184Z,22.95
2022-08-14T03:29:36.032Z,23.02
2022-08-14T03:34:52.992Z,23.01
2022-08-14T03:39:57.178Z,23.03
2022-08-14T03:45:20.262Z,22.98
2022-08-14T03:50:27.909Z,22.81
2022-08-14T03:55:33.069Z,22.82
2022-08-14T04:00:43.972Z,22.74
2022-08-14T04:05:48.931Z,22.66
2022-08-14T04:10:50.776Z,22.68
2022-08-14T04:16:01.441Z,22.70
2022-08-14T04:21:04.272Z,22.68
2022-08-14T04:26:08.689Z,22.62
2022-08-14T04:31:18.268Z,22.60
2022-08-14T04:36:26.526Z,22.53
2022-08-14T04:41:54.079Z,22.55
2022-08-14T04:47:13.974Z,22.56
2022-08-14T04:52:23.248Z,22.52
2022-08-14T04:57:26.121Z,22.58
2022-08-14T05:02:30.298Z,22.59
2022-08-14T05:07:54.325Z,22.66
2022-08-14T05:13:13.340Z,22.63
2022-08-14T05:19:16.545Z,22.57
2022-08-14T05:23:42.848Z,22.56
2022-08-14T05:28:47.661Z,22.60
2022-08-14T05:33:54.647Z,22.65
2022-08-14T05:38:58.525Z,22.75
2022-08-14T05:44:00.385Z,22.83
2022-08-14T05:49:02.175Z,22.89
2022-08-14T05:54:11.317Z,23.02
2022-08-14T05:59:16.692Z,23.12
2022-08-14T06:04:18.255Z,23.24
2022-08-14T06:09:20.125Z,23.29
2022-08-14T06:14:24.162Z,23.44
2022-08-14T06:19:27.150Z,23.55
2022-08-14T06:24:34.758Z,23.53
2022-08-14T06:29:38.286Z,23.64
2022-08-14T06:35:11.219Z,23.79
2022-08-14T06:40:01.038Z,23.94
2022-08-14T06:45:07.590Z,24.10
2022-08-14T06:50:12.121Z,24.31
2022-08-14T06:55:18.768Z,24.43
2022-08-14T07:00:31.059Z,24.56
2022-08-14T07:05:57.883Z,24.89
2022-08-14T07:11:04.005Z,24.87
2022-08-14T07:16:05.958Z,25.00
2022-08-14T07:21:09.651Z,25.17
2022-08-14T07:26:13.081Z,25.28
2022-08-14T07:31:16.323Z,25.57
2022-08-14T07:36:27.577Z,25.57
2022-08-14T07:41:35.593Z,25.71
2022-08-14T07:46:37.947Z,25.79
2022-08-14T07:51:41.568Z,25.91
2022-08-14T07:56:47.836Z,25.92
2022-08-14T08:01:51.664Z,26.08
2022-08-14T08:06:54.807Z,26.38
2022-08-14T08:11:57.405Z,26.42
2022-08-14T08:16:59.468Z,26.64
2022-08-14T08:22:03.404Z,26.66
2022-08-14T08:27:19.927Z,26.91
2022-08-14T08:32:29.819Z,26.99
2022-08-14T08:37:40.372Z,27.14
2022-08-14T08:42:45.125Z,27.46
2022-08-14T08:47:47.605Z,27.64
2022-08-14T08:52:53.785Z,28.05
2022-08-14T08:58:01.184Z,28.48
2022-08-14T09:03:13.189Z,28.50
2022-08-14T09:08:31.780Z,28.87
2022-08-14T09:13:34.414Z,29.25
2022-08-14T09:18:35.920Z,29.52
2022-08-14T09:24:26.870Z,30.05
2022-08-14T09:28:59.375Z,29.93
2022-08-14T09:34:27.444Z,30.32
2022-08-14T09:39:37.273Z,30.77
2022-08-14T09:44:54.315Z,31.21
2022-08-14T09:49:55.869Z,31.58
2022-08-14T09:54:57.321Z,31.93
2022-08-14T10:00:11.987Z,32.38
2022-08-14T10:05:39.051Z,32.38
2022-08-14T10:10:41.780Z,32.42
2022-08-14T10:15:46.247Z,32.59
2022-08-14T10:21:00.577Z,32.85
2022-08-14T10:26:07.628Z,33.72
2022-08-14T10:31:25.477Z,36.09
2022-08-14T10:36:35.024Z,39.86
2022-08-14T10:41:48.703Z,37.48
2022-08-14T10:47:40.690Z,35.50
2022-08-14T10:52:34.524Z,35.88
2022-08-14T10:57:58.755Z,36.66
2022-08-14T11:03:05.359Z,37.47
2022-08-14T11:08:09.102Z,38.35
2022-08-14T11:13:23.912Z,38.79
2022-08-14T11:18:32.234Z,38.80
2022-08-14T11:23:41.269Z,38.93
2022-08-14T11:28:49.659Z,41.74
2022-08-14T11:33:57.926Z,42.14
2022-08-14T11:39:00.006Z,39.65
2022-08-14T11:44:01.481Z,38.95
2022-08-14T11:49:06.733Z,38.71
2022-08-14T11:54:08.537Z,38.91
2022-08-14T11:59:17.981Z,38.47
2022-08-14T12:04:32.432Z,38.36
2022-08-14T12:09:37.369Z,38.34
2022-08-14T12:14:57.728Z,37.98
2022-08-14T12:20:06.580Z,37.65
2022-08-14T12:25:24.926Z,36.89
2022-08-14T12:30:42.496Z,36.86
2022-08-14T12:35:44.650Z,36.71
2022-08-14T12:40:51.789Z,36.57
2022-08-14T12:45:54.973Z,36.36
2022-08-14T12:50:57.691Z,36.13
2022-08-14T12:56:21.309Z,35.91
2022-08-14T13:01:28.076Z,36.02
2022-08-14T13:06:29.805Z,35.90
2022-08-14T13:11:41.110Z,35.70
2022-08-14T13:16:43.791Z,35.71
2022-08-14T13:22:05.866Z,35.91
2022-08-14T13:27:12.317Z,35.68
2022-08-14T13:32:14.053Z,35.48
2022-08-14T13:37:18.535Z,35.52
2022-08-14T13:42:21.230Z,34.99
2022-08-14T13:47:29.501Z,34.98
2022-08-14T13:52:55.322Z,34.99
2022-08-14T13:58:02.946Z,35.16
2022-08-14T14:03:07.275Z,35.22
2022-08-14T14:08:19.093Z,35.19
2022-08-14T14:13:33.035Z,34.58
2022-08-14T14:18:35.778Z,34.00
2022-08-14T14:23:44.905Z,34.31
2022-08-14T14:28:51.581Z,34.21
2022-08-14T14:33:58.200Z,34.10
2022-08-14T14:39:07.329Z,34.01
2022-08-14T14:44:15.530Z,33.86
2022-08-14T14:49:32.017Z,33.58
2022-08-14T14:54:46.338Z,33.33
2022-08-14T14:59:50.118Z,33.11
2022-08-14T15:04:51.803Z,33.15
2022-08-14T15:09:53.124Z,33.11
2022-08-14T15:14:58.194Z,33.37
2022-08-14T15:20:17.221Z,33.39
2022-08-14T15:25:32.517Z,33.35
2022-08-14T15:30:33.851Z,33.18
2022-08-14T15:35:35.682Z,33.10
2022-08-14T15:40:51.724Z,32.99
2022-08-14T15:45:57.640Z,32.99
2022-08-14T15:50:59.840Z,32.89
2022-08-14T15:56:01.957Z,32.93
2022-08-14T16:01:50.703Z,32.82
2022-08-14T16:06:45.157Z,32.80
2022-08-14T16:11:56.786Z,32.59
2022-08-14T16:16:59.981Z,32.42
2022-08-14T16:22:58.520Z,32.37
2022-08-14T16:27:39.188Z,32.35
2022-08-14T16:32:55.532Z,32.29
2022-08-14T16:37:58.779Z,32.15
2022-08-14T16:43:04.459Z,32.10
2022-08-14T16:48:57.215Z,31.93
2022-08-14T16:53:36.960Z,31.86
2022-08-14T16:58:38.509Z,31.77
2022-08-14T17:04:03.441Z,31.70
2022-08-14T17:09:09.057Z,31.61
2022-08-14T17:14:13.667Z,31.55
2022-08-14T17:19:17.451Z,31.47
2022-08-14T17:24:56.986Z,31.41
2022-08-14T17:29:54.635Z,31.31
2022-08-14T17:35:01.457Z,31.18
2022-08-14T17:40:19.298Z,31.08
2022-08-14T17:45:45.291Z,30.93
2022-08-14T17:50:59.958Z,30.85
2022-08-14T17:56:04.089Z,30.78
2022-08-14T18:01:06.002Z,30.70
2022-08-14T18:06:38.453Z,30.59
2022-08-14T18:11:45.810Z,30.49
2022-08-14T18:16:48.742Z,30.37
2022-08-14T18:21:57.219Z,30.30
2022-08-14T18:27:09.749Z,30.18
2022-08-14T18:32:32.851Z,30.08
2022-08-14T18:37:37.095Z,29.95
2022-08-14T18:42:38.385Z,29.90
2022-08-14T18:48:03.539Z,29.77
2022-08-14T18:53:10.545Z,29.68
2022-08-14T18:58:28.058Z,29.60
2022-08-14T19:03:34.229Z,29.54
2022-08-14T19:08:48.899Z,29.47
2022-08-14T19:13:51.641Z,29.40
2022-08-14T19:18:54.339Z,29.30
2022-08-14T19:24:34.171Z,29.20
2022-08-14T19:29:38.237Z,29.13
2022-08-14T19:34:52.290Z,29.05
2022-08-14T19:39:56.375Z,28.96
2022-08-14T19:44:57.960Z,28.89
2022-08-14T19:50:07.477Z,28.76
2022-08-14T19:55:34.394Z,28.65
2022-08-14T20:00:52.160Z,28.57
2022-08-14T20:06:01.628Z,28.54
2022-08-14T20:11:20.854Z,28.47
2022-08-14T20:16:32.653Z,28.42
2022-08-14T20:21:35.196Z,28.38
2022-08-14T20:26:46.961Z,28.33
2022-08-14T20:31:48.513Z,28.24
2022-08-14T20:37:11.534Z,28.17
2022-08-14T20:42:34.808Z,28.12
2022-08-14T20:47:58.225Z,28.01
2022-08-14T20:53:05.880Z,27.97
2022-08-14T20:58:10.067Z,27.82
2022-08-14T21:03:56.881Z,27.70
2022-08-14T21:09:05.603Z,27.57
2022-08-14T21:14:25.130Z,27.37
2022-08-14T21:19:30.286Z,27.25
2022-08-14T21:24:39.549Z,27.25
2022-08-14T21:29:55.410Z,27.19
2022-08-14T21:34:57.429Z,27.13
2022-08-14T21:40:00.302Z,27.15
2022-08-14T21:45:01.741Z,27.17
2022-08-14T21:50:39.854Z,27.22
2022-08-14T21:55:27.355Z,27.23
2022-08-14T22:00:39.631Z,27.21
2022-08-14T22:05:45.791Z,27.12
2022-08-14T22:10:51.536Z,27.06
2022-08-14T22:15:58.595Z,27.03
2022-08-14T22:21:05.948Z,26.92
2022-08-14T22:26:10.541Z,26.83
2022-08-14T22:31:23.979Z,26.78
2022-08-14T22:36:45.249Z,26.72
2022-08-14T22:41:55.863Z,26.62
2022-08-14T22:46:59.362Z,26.53
2022-08-14T22:52:04.179Z,26.53
2022-08-14T22:57:26.954Z,26.44
2022-08-14T23:02:40.892Z,26.43
2022-08-14T23:08:58.249Z,26.41
2022-08-14T23:13:07.574Z,26.36
2022-08-14T23:18:12.994Z,26.17
2022-08-14T23:23:22.792Z,25.97
2022-08-14T23:28:33.690Z,25.85
2022-08-14T23:33:52.116Z,25.86
2022-08-14T23:38:54.838Z,25.69
2022-08-14T23:43:57.758Z,25.74
2022-08-14T23:49:00.514Z,25.77
2022-08-14T23:54:03.457Z,25.79
2022-08-14T23:59:05.350Z,25.74
